createdAt,value
2022-12-19T00:02:48.252Z,76
2022-12-19T00:06:13.330Z,76
2022-12-19T00:09:38.511Z,76
2022-12-19T00:13:03.808Z,76
2022-12-19T00:16:28.970Z,75
2022-12-19T00:19:54.010Z,74
2022-12-19T00:23:19.187Z,73
2022-12-19T00:26:44.360Z,72
2022-12-19T00:30:09.664Z,71
2022-12-19T00:33:34.709Z,71
2022-12-19T00:36:59.892Z,71
2022-12-19T00:40:25.071Z,70
2022-12-19T00:43:50.237Z,71
2022-12-19T00:47:15.536Z,72
2022-12-19T00:50:40.597Z,71
2022-12-19T00:54:06.792Z,71
2022-12-19T00:57:30.944Z,71
2022-12-19T01:00:56.139Z,69
2022-12-19T01:04:29.690Z,70
2022-12-19T01:07:46.448Z,70
2022-12-19T01:11:11.630Z,69
2022-12-19T01:14:36.822Z,70
2022-12-19T01:18:02.006Z,70
2022-12-19T01:21:27.294Z,69
2022-12-19T01:24:52.353Z,69
2022-12-19T01:28:17.532Z,68
2022-12-19T01:31:42.789Z,68
2022-12-19T01:35:07.973Z,67
2022-12-19T01:38:33.171Z,69
2022-12-19T01:41:58.239Z,68
2022-12-19T01:45:24.244Z,68
2022-12-19T01:48:48.581Z,68
2022-12-19T01:52:13.937Z,68
2022-12-19T01:55:39.021Z,67
2022-12-19T01:59:06.176Z,69
2022-12-19T02:02:29.333Z,68
2022-12-19T02:05:54.409Z,69
2022-12-19T02:09:19.544Z,68
2022-12-19T02:12:44.839Z,68
2022-12-19T02:16:09.932Z,68
2022-12-19T02:19:35.047Z,69
2022-12-19T02:23:00.210Z,68
2022-12-19T02:26:25.368Z,69
2022-12-19T02:29:50.667Z,68
2022-12-19T02:33:15.710Z,69
2022-12-19T02:36:41.844Z,69
2022-12-19T02:40:06.053Z,68
2022-12-19T02:43:31.211Z,68
2022-12-19T02:46:56.523Z,68
2022-12-19T02:50:21.571Z,68
2022-12-19T02:53:46.734Z,68
2022-12-19T02:57:11.903Z,68
2022-12-19T03:00:37.070Z,68
2022-12-19T03:04:02.359Z,68
2022-12-19T03:07:27.402Z,68
2022-12-19T03:10:52.601Z,69
2022-12-19T03:14:17.774Z,68
2022-12-19T03:17:42.977Z,67
2022-12-19T03:21:08.278Z,68
2022-12-19T03:24:33.324Z,68
2022-12-19T03:27:58.495Z,68
2022-12-19T03:31:23.682Z,68
2022-12-19T03:34:48.881Z,68
2022-12-19T03:38:14.194Z,68
2022-12-19T03:41:39.211Z,68
2022-12-19T03:45:04.379Z,68
2022-12-19T03:48:29.537Z,68
2022-12-19T03:51:59.174Z,68
2022-12-19T03:55:20.030Z,68
2022-12-19T03:58:45.061Z,69
2022-12-19T04:02:10.364Z,70
2022-12-19T04:05:35.393Z,70
2022-12-19T04:09:00.567Z,71
2022-12-19T04:12:25.895Z,70
2022-12-19T04:15:50.905Z,71
2022-12-19T04:19:16.050Z,71
2022-12-19T04:22:41.219Z,71
2022-12-19T04:26:06.387Z,71
2022-12-19T04:29:31.662Z,71
2022-12-19T04:32:56.705Z,72
2022-12-19T04:36:21.893Z,72
2022-12-19T04:39:47.127Z,72
2022-12-19T04:43:12.287Z,72
2022-12-19T04:46:37.608Z,73
2022-12-19T04:50:02.646Z,72
2022-12-19T04:53:27.803Z,73
2022-12-19T04:56:53.030Z,73
2022-12-19T05:00:18.221Z,72
2022-12-19T05:03:43.547Z,73
2022-12-19T05:07:08.563Z,73
2022-12-19T05:10:33.748Z,73
2022-12-19T05:13:58.929Z,73
2022-12-19T05:17:24.124Z,73
2022-12-19T05:20:49.399Z,74
2022-12-19T05:24:14.462Z,74
2022-12-19T05:27:39.644Z,73
2022-12-19T05:31:04.892Z,73
2022-12-19T05:34:30.077Z,73
2022-12-19T05:37:55.384Z,73
2022-12-19T05:41:20.499Z,73
2022-12-19T05:44:45.677Z,74
2022-12-19T05:48:10.817Z,73
2022-12-19T05:51:36.004Z,73
2022-12-19T05:55:01.351Z,72
2022-12-19T05:58:26.427Z,73
2022-12-19T06:01:51.748Z,72
2022-12-19T06:05:16.955Z,71
2022-12-19T06:08:42.246Z,70
2022-12-19T06:12:07.627Z,70
2022-12-19T06:15:32.729Z,70
2022-12-19T06:18:58.013Z,71
2022-12-19T06:22:23.174Z,71
2022-12-19T06:25:48.336Z,73
2022-12-19T06:29:13.631Z,73
2022-12-19T06:32:38.666Z,74
2022-12-19T06:36:03.831Z,74
2022-12-19T06:39:28.989Z,75
2022-12-19T06:42:54.171Z,74
2022-12-19T06:46:19.516Z,74
2022-12-19T06:49:44.521Z,73
2022-12-19T06:53:09.686Z,74
2022-12-19T06:56:34.872Z,74
2022-12-19T07:00:00.038Z,75
2022-12-19T07:03:25.356Z,75
2022-12-19T07:06:50.419Z,74
2022-12-19T07:10:15.646Z,75
2022-12-19T07:13:40.756Z,75
2022-12-19T07:17:05.922Z,75
2022-12-19T07:20:31.249Z,76
2022-12-19T07:23:56.232Z,77
2022-12-19T07:27:21.399Z,78
2022-12-19T07:30:46.578Z,78
2022-12-19T07:34:11.749Z,78
2022-12-19T07:37:37.045Z,78
2022-12-19T07:41:02.103Z,78
2022-12-19T07:44:27.265Z,78
2022-12-19T07:47:52.444Z,79
2022-12-19T07:51:17.618Z,80
2022-12-19T07:54:42.935Z,79
2022-12-19T07:58:07.940Z,81
2022-12-19T08:01:33.185Z,80
2022-12-19T08:04:58.254Z,81
2022-12-19T08:08:23.428Z,82
2022-12-19T08:11:48.723Z,82
2022-12-19T08:15:13.826Z,83
2022-12-19T08:18:38.972Z,83
2022-12-19T08:22:04.143Z,83
2022-12-19T08:25:29.311Z,83
2022-12-19T08:28:54.491Z,83
2022-12-19T08:32:21.370Z,84
2022-12-19T08:35:44.823Z,85
2022-12-19T08:39:09.966Z,85
2022-12-19T08:42:35.122Z,86
2022-12-19T08:46:00.505Z,86
2022-12-19T08:49:25.505Z,86
2022-12-19T08:52:50.670Z,85
2022-12-19T08:56:15.845Z,86
2022-12-19T08:59:41.000Z,87
2022-12-19T09:03:06.475Z,87
2022-12-19T09:06:31.357Z,87
2022-12-19T09:09:56.482Z,87
2022-12-19T09:13:21.667Z,87
2022-12-19T09:16:46.877Z,87
2022-12-19T09:20:12.143Z,87
2022-12-19T09:23:37.169Z,88
2022-12-19T09:27:02.329Z,88
2022-12-19T09:30:27.497Z,87
2022-12-19T09:33:52.674Z,88
2022-12-19T09:37:18.105Z,88
2022-12-19T09:40:43.057Z,88
2022-12-19T09:44:08.241Z,88
2022-12-19T09:47:33.455Z,87
2022-12-19T09:51:09.833Z,88
2022-12-19T09:54:24.013Z,88
2022-12-19T09:57:49.097Z,88
2022-12-19T10:01:14.474Z,88
2022-12-19T10:04:39.616Z,88
2022-12-19T10:08:09.542Z,88
2022-12-19T10:12:37.178Z,89
2022-12-19T10:14:55.186Z,88
2022-12-19T10:18:20.416Z,89
2022-12-19T10:25:10.963Z,87
2022-12-19T10:28:36.301Z,87
2022-12-19T10:32:01.499Z,87
2022-12-19T10:35:29.402Z,87
2022-12-19T10:38:54.626Z,86
2022-12-19T10:42:19.875Z,87
2022-12-19T10:45:45.362Z,86
2022-12-19T10:49:10.471Z,85
2022-12-19T10:52:36.124Z,86
2022-12-19T10:56:01.382Z,86
2022-12-19T10:59:26.592Z,85
2022-12-19T11:02:52.159Z,85
2022-12-19T11:06:17.050Z,86
2022-12-19T11:09:43.523Z,87
2022-12-19T11:15:49.494Z,87
2022-12-19T11:19:13.760Z,88
2022-12-19T11:26:02.692Z,88
2022-12-19T11:30:22.030Z,88
2022-12-19T11:30:23.826Z,88
2022-12-19T11:33:39.671Z,87
2022-12-19T11:37:05.053Z,87
2022-12-19T11:40:30.195Z,87
2022-12-19T11:43:55.393Z,87
2022-12-19T11:47:20.637Z,87
2022-12-19T11:50:45.897Z,87
2022-12-19T11:54:11.348Z,87
2022-12-19T11:57:36.480Z,87
2022-12-19T12:01:01.774Z,88
2022-12-19T12:04:27.042Z,87
2022-12-19T12:09:04.520Z,87
2022-12-19T12:14:23.246Z,87
2022-12-19T12:17:49.661Z,87
2022-12-19T12:23:40.377Z,88
2022-12-19T12:31:03.840Z,88
2022-12-19T12:31:33.230Z,88
2022-12-19T12:31:35.776Z,88
2022-12-19T12:38:00.812Z,89
2022-12-19T12:38:40.239Z,89
2022-12-19T12:42:05.070Z,89
2022-12-19T12:45:30.362Z,89
2022-12-19T12:49:00.315Z,89
2022-12-19T12:52:25.580Z,89
2022-12-19T12:55:50.912Z,88
2022-12-19T12:59:16.208Z,89
2022-12-19T13:02:41.703Z,90
2022-12-19T13:06:06.873Z,90
2022-12-19T13:09:32.301Z,90
2022-12-19T13:12:57.595Z,90
2022-12-19T13:16:22.970Z,89
2022-12-19T13:19:48.259Z,89
2022-12-19T13:23:13.556Z,89
2022-12-19T13:26:38.845Z,89
2022-12-19T13:30:04.110Z,88
2022-12-19T13:33:29.443Z,89
2022-12-19T13:39:47.356Z,89
2022-12-19T13:40:20.828Z,89
2022-12-19T13:43:45.309Z,88
2022-12-19T13:47:10.657Z,88
2022-12-19T13:50:35.955Z,88
2022-12-19T13:54:01.256Z,87
2022-12-19T13:57:26.512Z,88
2022-12-19T14:00:53.784Z,88
2022-12-19T14:04:17.200Z,88
2022-12-19T14:07:42.419Z,88
2022-12-19T14:11:28.202Z,88
2022-12-19T14:14:40.999Z,88
2022-12-19T14:18:08.377Z,88
2022-12-19T14:22:08.463Z,88
2022-12-19T14:25:01.233Z,88
2022-12-19T14:28:28.966Z,89
2022-12-19T15:04:55.422Z,88
2022-12-19T15:08:20.345Z,88
2022-12-19T15:11:53.556Z,88
2022-12-19T15:15:10.892Z,88
2022-12-19T15:18:36.140Z,87
2022-12-19T15:22:01.387Z,88
2022-12-19T15:26:01.914Z,88
2022-12-19T15:28:51.769Z,88
2022-12-19T15:32:17.001Z,89
2022-12-19T15:35:42.177Z,89
2022-12-19T15:39:07.401Z,88
2022-12-19T15:42:32.608Z,89
2022-12-19T15:45:57.776Z,89
2022-12-19T15:49:22.990Z,88
2022-12-19T15:52:48.167Z,88
2022-12-19T15:56:13.379Z,88
2022-12-19T15:59:38.789Z,87
2022-12-19T16:07:40.623Z,87
2022-12-19T16:11:05.809Z,88
2022-12-19T16:14:30.991Z,88
2022-12-19T16:17:56.157Z,88
2022-12-19T16:21:23.579Z,89
2022-12-19T16:24:46.601Z,88
2022-12-19T16:28:11.877Z,88
2022-12-19T16:31:37.234Z,88
2022-12-19T16:35:02.412Z,88
2022-12-19T16:38:27.629Z,88
2022-12-19T16:41:52.885Z,88
2022-12-19T16:45:18.321Z,88
2022-12-19T16:48:43.577Z,88
2022-12-19T16:52:08.766Z,88
2022-12-19T16:55:33.967Z,87
2022-12-19T16:58:59.147Z,87
2022-12-19T17:02:24.468Z,87
2022-12-19T17:05:49.587Z,87
2022-12-19T17:09:14.727Z,87
2022-12-19T17:12:39.926Z,87
2022-12-19T17:16:17.832Z,87
2022-12-19T17:19:46.244Z,87
2022-12-19T17:24:05.167Z,87
2022-12-19T17:28:04.252Z,87
2022-12-19T17:31:30.390Z,87
2022-12-19T17:34:55.437Z,86
2022-12-19T17:38:20.702Z,86
2022-12-19T17:42:36.982Z,86
2022-12-19T17:45:51.815Z,86
2022-12-19T17:49:25.556Z,86
2022-12-19T17:52:50.769Z,86
2022-12-19T17:56:16.025Z,87
2022-12-19T17:59:41.316Z,87
2022-12-19T18:03:06.646Z,87
2022-12-19T18:06:31.782Z,87
2022-12-19T18:09:57.045Z,87
2022-12-19T18:13:22.225Z,87
2022-12-19T18:16:47.478Z,87
2022-12-19T18:20:12.722Z,87
2022-12-19T18:23:37.969Z,87
2022-12-19T18:27:03.190Z,86
2022-12-19T18:30:28.486Z,86
2022-12-19T18:33:53.761Z,86
2022-12-19T18:37:18.947Z,86
2022-12-19T18:40:44.200Z,85
2022-12-19T18:44:09.419Z,85
2022-12-19T18:47:34.680Z,85
2022-12-19T18:50:59.983Z,85
2022-12-19T18:54:25.163Z,84
2022-12-19T18:57:50.433Z,84
2022-12-19T19:01:15.827Z,84
2022-12-19T19:04:41.057Z,84
2022-12-19T19:08:06.320Z,84
2022-12-19T19:11:31.508Z,83
2022-12-19T19:14:56.750Z,83
2022-12-19T19:18:21.949Z,83
2022-12-19T19:21:47.245Z,83
2022-12-19T19:25:12.506Z,83
2022-12-19T19:28:37.690Z,83
2022-12-19T19:32:03.003Z,83
2022-12-19T19:35:28.232Z,83
2022-12-19T19:38:53.426Z,83
2022-12-19T19:42:18.661Z,83
2022-12-19T19:45:43.885Z,84
2022-12-19T19:49:09.132Z,84
2022-12-19T19:52:34.443Z,85
2022-12-19T19:55:59.667Z,85
2022-12-19T19:59:24.886Z,85
2022-12-19T20:02:50.334Z,85
2022-12-19T20:06:15.337Z,85
2022-12-19T20:09:40.566Z,85
2022-12-19T20:13:05.798Z,85
2022-12-19T20:16:31.267Z,85
2022-12-19T20:19:56.258Z,84
2022-12-19T20:23:21.456Z,84
2022-12-19T20:26:46.692Z,84
2022-12-19T20:30:11.865Z,84
2022-12-19T20:33:37.099Z,84
2022-12-19T20:37:02.303Z,84
2022-12-19T20:40:27.492Z,84
2022-12-19T20:43:52.675Z,84
2022-12-19T20:47:17.935Z,84
2022-12-19T20:50:43.534Z,84
2022-12-19T20:54:08.483Z,84
2022-12-19T20:57:33.744Z,85
2022-12-19T21:00:58.991Z,85
2022-12-19T21:04:24.359Z,85
2022-12-19T21:07:49.552Z,84
2022-12-19T21:11:14.756Z,84
2022-12-19T21:14:40.043Z,84
2022-12-19T21:18:05.275Z,84
2022-12-19T21:21:30.523Z,84
2022-12-19T21:24:55.825Z,84
2022-12-19T21:28:21.051Z,83
2022-12-19T21:31:46.337Z,83
2022-12-19T21:35:11.592Z,83
2022-12-19T21:38:36.830Z,82
2022-12-19T21:42:02.092Z,82
2022-12-19T21:45:27.351Z,82
2022-12-19T21:48:52.590Z,82
2022-12-19T21:52:17.856Z,82
2022-12-19T21:55:43.120Z,82
2022-12-19T21:59:08.402Z,82
2022-12-19T22:02:33.775Z,83
2022-12-19T22:05:58.899Z,83
2022-12-19T22:09:24.142Z,84
2022-12-19T22:12:49.402Z,84
2022-12-19T22:16:14.740Z,85
2022-12-19T22:19:39.901Z,85
2022-12-19T22:23:09.805Z,85
2022-12-19T22:26:30.393Z,85
2022-12-19T22:29:55.628Z,84
2022-12-19T22:33:20.923Z,84
2022-12-19T22:36:46.159Z,84
2022-12-19T22:40:11.425Z,84
2022-12-19T22:43:36.668Z,84
2022-12-19T22:47:01.945Z,83
2022-12-19T22:50:27.234Z,84
2022-12-19T22:53:52.434Z,84
2022-12-19T22:57:17.745Z,84
2022-12-19T23:00:42.997Z,84
2022-12-19T23:04:08.389Z,84
2022-12-19T23:07:33.531Z,84
2022-12-19T23:10:58.758Z,84
2022-12-19T23:14:24.025Z,84
2022-12-19T23:17:49.276Z,84
2022-12-19T23:21:14.525Z,84
2022-12-19T23:24:39.801Z,84
2022-12-19T23:28:05.028Z,84
2022-12-19T23:31:30.333Z,84
2022-12-19T23:34:55.578Z,84
2022-12-19T23:38:20.797Z,84
2022-12-19T23:41:46.091Z,84
2022-12-19T23:45:11.348Z,84
2022-12-19T23:48:36.586Z,84
2022-12-19T23:52:01.817Z,85
2022-12-19T23:55:27.077Z,85
2022-12-19T23:58:52.423Z,86
